sensor_id;sensor_type;location;lat;lon;timestamp;temperature;humidity
12632;DHT22;6381;45.748;12.106;2023-04-24T00:00:55;15.60;99.90
12632;DHT22;6381;45.748;12.106;2023-04-24T00:03:27;15.50;99.90
12632;DHT22;6381;45.748;12.106;2023-04-24T00:05:57;15.50;99.90
12632;DHT22;6381;45.748;12.106;2023-04-24T00:08:28;15.60;99.90
12632;DHT22;6381;45.748;12.106;2023-04-24T00:10:57;15.50;99.90
12632;DHT22;6381;45.748;12.106;2023-04-24T00:13:26;15.70;99.90
12632;DHT22;6381;45.748;12.106;2023-04-24T00:15:55;15.60;99.90
12632;DHT22;6381;45.748;12.106;2023-04-24T00:18:24;15.60;99.90
12632;DHT22;6381;45.748;12.106;2023-04-24T00:20:54;15.70;99.90
12632;DHT22;6381;45.748;12.106;2023-04-24T00:23:23;15.70;99.90
12632;DHT22;6381;45.748;12.106;2023-04-24T00:25:53;15.70;99.90
12632;DHT22;6381;45.748;12.106;2023-04-24T00:28:21;15.60;99.90
12632;DHT22;6381;45.748;12.106;2023-04-24T00:30:50;15.60;99.90
12632;DHT22;6381;45.748;12.106;2023-04-24T00:33:21;15.70;99.90
12632;DHT22;6381;45.748;12.106;2023-04-24T00:35:49;15.70;99.90
12632;DHT22;6381;45.748;12.106;2023-04-24T00:38:20;15.70;99.90
12632;DHT22;6381;45.748;12.106;2023-04-24T00:40:49;15.60;99.90
12632;DHT22;6381;45.748;12.106;2023-04-24T00:43:18;15.50;99.90
12632;DHT22;6381;45.748;12.106;2023-04-24T00:45:47;15.50;99.90
12632;DHT22;6381;45.748;12.106;2023-04-24T00:48:16;15.70;99.90
12632;DHT22;6381;45.748;12.106;2023-04-24T00:50:45;15.70;99.90
12632;DHT22;6381;45.748;12.106;2023-04-24T00:53:14;15.80;99.90
12632;DHT22;6381;45.748;12.106;2023-04-24T00:55:44;15.60;99.90
12632;DHT22;6381;45.748;12.106;2023-04-24T00:58:14;15.80;99.90
12632;DHT22;6381;45.748;12.106;2023-04-24T01:00:43;15.70;99.90
12632;DHT22;6381;45.748;12.106;2023-04-24T01:03:13;15.90;99.90
12632;DHT22;6381;45.748;12.106;2023-04-24T01:05:42;15.70;99.90
12632;DHT22;6381;45.748;12.106;2023-04-24T01:08:11;15.80;99.90
12632;DHT22;6381;45.748;12.106;2023-04-24T01:10:41;15.70;99.90
12632;DHT22;6381;45.748;12.106;2023-04-24T01:13:13;15.80;99.90
12632;DHT22;6381;45.748;12.106;2023-04-24T01:15:44;15.70;99.90
12632;DHT22;6381;45.748;12.106;2023-04-24T01:18:13;15.60;99.90
12632;DHT22;6381;45.748;12.106;2023-04-24T01:20:43;15.60;99.90
12632;DHT22;6381;45.748;12.106;2023-04-24T01:23:15;15.60;99.90
12632;DHT22;6381;45.748;12.106;2023-04-24T01:25:44;17.70;99.90
12632;DHT22;6381;45.748;12.106;2023-04-24T01:28:14;15.70;99.90
12632;DHT22;6381;45.748;12.106;2023-04-24T01:30:44;15.60;99.90
12632;DHT22;6381;45.748;12.106;2023-04-24T01:33:13;15.60;99.90
12632;DHT22;6381;45.748;12.106;2023-04-24T01:35:42;15.60;99.90
12632;DHT22;6381;45.748;12.106;2023-04-24T01:38:11;15.60;99.90
12632;DHT22;6381;45.748;12.106;2023-04-24T01:40:41;15.50;99.90
12632;DHT22;6381;45.748;12.106;2023-04-24T01:43:11;15.60;99.90
12632;DHT22;6381;45.748;12.106;2023-04-24T01:45:40;15.60;99.90
12632;DHT22;6381;45.748;12.106;2023-04-24T01:48:09;15.60;99.90
12632;DHT22;6381;45.748;12.106;2023-04-24T01:50:38;15.70;99.90
12632;DHT22;6381;45.748;12.106;2023-04-24T01:53:06;15.50;99.90
12632;DHT22;6381;45.748;12.106;2023-04-24T01:55:35;15.50;99.90
12632;DHT22;6381;45.748;12.106;2023-04-24T01:58:06;15.60;99.90
12632;DHT22;6381;45.748;12.106;2023-04-24T02:00:35;15.40;99.90
12632;DHT22;6381;45.748;12.106;2023-04-24T02:03:04;15.60;99.90
12632;DHT22;6381;45.748;12.106;2023-04-24T02:05:33;15.50;99.90
12632;DHT22;6381;45.748;12.106;2023-04-24T02:08:03;15.50;99.90
12632;DHT22;6381;45.748;12.106;2023-04-24T02:10:31;15.50;99.90
12632;DHT22;6381;45.748;12.106;2023-04-24T02:13:00;15.40;99.90
12632;DHT22;6381;45.748;12.106;2023-04-24T02:15:30;15.50;99.90
12632;DHT22;6381;45.748;12.106;2023-04-24T02:17:59;15.50;99.90
12632;DHT22;6381;45.748;12.106;2023-04-24T02:20:31;15.40;99.90
12632;DHT22;6381;45.748;12.106;2023-04-24T02:23:01;15.60;99.90
12632;DHT22;6381;45.748;12.106;2023-04-24T02:25:30;15.50;99.90
12632;DHT22;6381;45.748;12.106;2023-04-24T02:27:58;15.50;99.90
12632;DHT22;6381;45.748;12.106;2023-04-24T02:30:27;15.60;99.90
12632;DHT22;6381;45.748;12.106;2023-04-24T02:32:58;15.50;99.90
12632;DHT22;6381;45.748;12.106;2023-04-24T02:35:27;15.30;99.90
12632;DHT22;6381;45.748;12.106;2023-04-24T02:37:56;15.40;99.90
12632;DHT22;6381;45.748;12.106;2023-04-24T02:40:24;15.30;99.90
12632;DHT22;6381;45.748;12.106;2023-04-24T02:42:53;15.40;99.90
12632;DHT22;6381;45.748;12.106;2023-04-24T02:45:23;15.40;99.90
12632;DHT22;6381;45.748;12.106;2023-04-24T02:47:53;15.30;99.90
12632;DHT22;6381;45.748;12.106;2023-04-24T02:50:23;15.20;99.90
12632;DHT22;6381;45.748;12.106;2023-04-24T02:52:52;15.30;99.90
12632;DHT22;6381;45.748;12.106;2023-04-24T02:55:21;15.20;99.90
12632;DHT22;6381;45.748;12.106;2023-04-24T02:57:50;15.10;99.90
12632;DHT22;6381;45.748;12.106;2023-04-24T03:00:19;15.20;99.90
12632;DHT22;6381;45.748;12.106;2023-04-24T03:02:48;15.20;99.90
12632;DHT22;6381;45.748;12.106;2023-04-24T03:05:17;15.10;99.90
12632;DHT22;6381;45.748;12.106;2023-04-24T03:07:49;15.10;99.90
12632;DHT22;6381;45.748;12.106;2023-04-24T03:10:21;15.10;99.90
12632;DHT22;6381;45.748;12.106;2023-04-24T03:12:50;15.10;99.90
12632;DHT22;6381;45.748;12.106;2023-04-24T03:15:20;15.00;99.90
12632;DHT22;6381;45.748;12.106;2023-04-24T03:17:50;15.30;99.90
12632;DHT22;6381;45.748;12.106;2023-04-24T03:20:24;15.10;99.90
12632;DHT22;6381;45.748;12.106;2023-04-24T03:22:56;15.10;99.90
12632;DHT22;6381;45.748;12.106;2023-04-24T03:25:25;15.20;99.90
12632;DHT22;6381;45.748;12.106;2023-04-24T03:27:54;15.10;99.90
12632;DHT22;6381;45.748;12.106;2023-04-24T03:30:38;15.10;99.90
12632;DHT22;6381;45.748;12.106;2023-04-24T03:33:08;15.00;99.90
12632;DHT22;6381;45.748;12.106;2023-04-24T03:35:44;15.00;99.90
12632;DHT22;6381;45.748;12.106;2023-04-24T03:38:14;15.20;99.90
12632;DHT22;6381;45.748;12.106;2023-04-24T03:41:02;15.20;99.90
12632;DHT22;6381;45.748;12.106;2023-04-24T03:43:45;15.10;99.90
12632;DHT22;6381;45.748;12.106;2023-04-24T03:46:15;15.10;99.90
12632;DHT22;6381;45.748;12.106;2023-04-24T03:48:51;15.20;99.90
12632;DHT22;6381;45.748;12.106;2023-04-24T03:51:24;15.00;99.90
12632;DHT22;6381;45.748;12.106;2023-04-24T03:54:01;15.10;99.90
12632;DHT22;6381;45.748;12.106;2023-04-24T03:56:33;15.10;99.90
12632;DHT22;6381;45.748;12.106;2023-04-24T03:59:02;15.20;99.90
12632;DHT22;6381;45.748;12.106;2023-04-24T04:01:32;15.40;99.90
12632;DHT22;6381;45.748;12.106;2023-04-24T04:04:12;15.30;99.90
12632;DHT22;6381;45.748;12.106;2023-04-24T04:06:43;15.20;99.90
12632;DHT22;6381;45.748;12.106;2023-04-24T04:09:15;15.20;99.90
12632;DHT22;6381;45.748;12.106;2023-04-24T04:11:45;15.20;99.90
12632;DHT22;6381;45.748;12.106;2023-04-24T04:14:14;15.40;99.90
12632;DHT22;6381;45.748;12.106;2023-04-24T04:16:46;15.40;99.90
12632;DHT22;6381;45.748;12.106;2023-04-24T04:19:15;15.30;99.90
12632;DHT22;6381;45.748;12.106;2023-04-24T04:21:44;15.30;99.90
12632;DHT22;6381;45.748;12.106;2023-04-24T04:24:27;15.40;99.90
12632;DHT22;6381;45.748;12.106;2023-04-24T04:26:58;15.20;99.90
12632;DHT22;6381;45.748;12.106;2023-04-24T04:29:31;15.10;99.90
12632;DHT22;6381;45.748;12.106;2023-04-24T04:32:04;15.20;99.90
12632;DHT22;6381;45.748;12.106;2023-04-24T04:34:33;15.10;99.90
12632;DHT22;6381;45.748;12.106;2023-04-24T04:37:05;15.10;99.90
12632;DHT22;6381;45.748;12.106;2023-04-24T04:39:44;15.40;99.90
12632;DHT22;6381;45.748;12.106;2023-04-24T04:42:19;15.10;99.90
12632;DHT22;6381;45.748;12.106;2023-04-24T04:44:49;15.10;99.90
12632;DHT22;6381;45.748;12.106;2023-04-24T04:47:24;15.40;99.90
12632;DHT22;6381;45.748;12.106;2023-04-24T04:49:55;13.60;99.90
12632;DHT22;6381;45.748;12.106;2023-04-24T04:52:27;15.40;99.90
12632;DHT22;6381;45.748;12.106;2023-04-24T04:55:07;15.40;99.90
12632;DHT22;6381;45.748;12.106;2023-04-24T04:58:08;15.40;99.90
12632;DHT22;6381;45.748;12.106;2023-04-24T05:00:37;15.10;99.90
12632;DHT22;6381;45.748;12.106;2023-04-24T05:03:15;15.10;99.90
12632;DHT22;6381;45.748;12.106;2023-04-24T05:05:53;15.10;99.90
12632;DHT22;6381;45.748;12.106;2023-04-24T05:08:23;15.20;99.90
12632;DHT22;6381;45.748;12.106;2023-04-24T05:10:56;15.00;99.90
12632;DHT22;6381;45.748;12.106;2023-04-24T05:13:27;14.90;99.90
12632;DHT22;6381;45.748;12.106;2023-04-24T05:16:16;15.10;99.90
12632;DHT22;6381;45.748;12.106;2023-04-24T05:18:46;15.10;99.90
12632;DHT22;6381;45.748;12.106;2023-04-24T05:21:18;15.10;99.90
12632;DHT22;6381;45.748;12.106;2023-04-24T05:23:50;15.10;99.90
12632;DHT22;6381;45.748;12.106;2023-04-24T05:26:56;15.00;99.90
12632;DHT22;6381;45.748;12.106;2023-04-24T05:29:32;15.00;99.90
12632;DHT22;6381;45.748;12.106;2023-04-24T05:32:03;14.90;99.90
12632;DHT22;6381;45.748;12.106;2023-04-24T05:34:32;14.80;99.90
12632;DHT22;6381;45.748;12.106;2023-04-24T05:37:01;14.70;99.90
12632;DHT22;6381;45.748;12.106;2023-04-24T05:39:30;14.70;99.90
12632;DHT22;6381;45.748;12.106;2023-04-24T05:42:01;14.70;99.90
12632;DHT22;6381;45.748;12.106;2023-04-24T05:44:30;14.60;99.90
12632;DHT22;6381;45.748;12.106;2023-04-24T05:46:59;14.60;99.90
12632;DHT22;6381;45.748;12.106;2023-04-24T05:49:29;14.40;99.90
12632;DHT22;6381;45.748;12.106;2023-04-24T05:51:58;14.20;99.90
12632;DHT22;6381;45.748;12.106;2023-04-24T05:54:27;14.30;99.90
12632;DHT22;6381;45.748;12.106;2023-04-24T05:56:56;14.50;99.90
12632;DHT22;6381;45.748;12.106;2023-04-24T05:59:38;14.40;99.90
12632;DHT22;6381;45.748;12.106;2023-04-24T06:02:08;14.60;99.90
12632;DHT22;6381;45.748;12.106;2023-04-24T06:04:36;14.30;99.90
12632;DHT22;6381;45.748;12.106;2023-04-24T06:07:05;14.50;99.90
12632;DHT22;6381;45.748;12.106;2023-04-24T06:09:35;14.30;99.90
12632;DHT22;6381;45.748;12.106;2023-04-24T06:12:04;14.30;99.90
12632;DHT22;6381;45.748;12.106;2023-04-24T06:14:51;14.60;99.90
12632;DHT22;6381;45.748;12.106;2023-04-24T06:17:25;14.60;99.90
12632;DHT22;6381;45.748;12.106;2023-04-24T06:19:54;14.40;99.90
12632;DHT22;6381;45.748;12.106;2023-04-24T06:22:24;14.40;99.90
12632;DHT22;6381;45.748;12.106;2023-04-24T06:24:53;14.20;99.90
12632;DHT22;6381;45.748;12.106;2023-04-24T06:27:24;14.20;99.90
12632;DHT22;6381;45.748;12.106;2023-04-24T06:29:54;14.10;99.90
12632;DHT22;6381;45.748;12.106;2023-04-24T06:32:23;14.30;99.90
12632;DHT22;6381;45.748;12.106;2023-04-24T06:34:52;14.20;99.90
12632;DHT22;6381;45.748;12.106;2023-04-24T06:37:23;14.30;99.90
12632;DHT22;6381;45.748;12.106;2023-04-24T06:39:52;14.40;99.90
12632;DHT22;6381;45.748;12.106;2023-04-24T06:42:21;14.30;99.90
12632;DHT22;6381;45.748;12.106;2023-04-24T06:44:51;14.40;99.90
12632;DHT22;6381;45.748;12.106;2023-04-24T06:47:21;14.40;99.90
12632;DHT22;6381;45.748;12.106;2023-04-24T06:49:50;14.40;99.90
12632;DHT22;6381;45.748;12.106;2023-04-24T06:52:19;14.40;99.90
12632;DHT22;6381;45.748;12.106;2023-04-24T06:54:48;14.40;99.90
12632;DHT22;6381;45.748;12.106;2023-04-24T06:57:17;14.40;99.90
12632;DHT22;6381;45.748;12.106;2023-04-24T06:59:47;14.40;99.90
12632;DHT22;6381;45.748;12.106;2023-04-24T07:02:16;14.30;99.90
12632;DHT22;6381;45.748;12.106;2023-04-24T07:04:46;14.30;99.90
12632;DHT22;6381;45.748;12.106;2023-04-24T07:07:16;14.30;99.90
12632;DHT22;6381;45.748;12.106;2023-04-24T07:09:44;14.40;99.90
12632;DHT22;6381;45.748;12.106;2023-04-24T07:12:13;14.20;99.90
12632;DHT22;6381;45.748;12.106;2023-04-24T07:14:44;14.20;99.90
12632;DHT22;6381;45.748;12.106;2023-04-24T07:17:12;14.10;99.90
12632;DHT22;6381;45.748;12.106;2023-04-24T07:19:42;14.10;99.90
12632;DHT22;6381;45.748;12.106;2023-04-24T07:22:12;14.10;99.90
12632;DHT22;6381;45.748;12.106;2023-04-24T07:24:44;14.00;99.90
12632;DHT22;6381;45.748;12.106;2023-04-24T07:27:13;14.20;99.90
12632;DHT22;6381;45.748;12.106;2023-04-24T07:29:42;14.20;99.90
12632;DHT22;6381;45.748;12.106;2023-04-24T07:32:11;14.20;99.90
12632;DHT22;6381;45.748;12.106;2023-04-24T07:34:40;14.00;99.90
12632;DHT22;6381;45.748;12.106;2023-04-24T07:37:09;14.10;99.90
12632;DHT22;6381;45.748;12.106;2023-04-24T07:39:39;14.10;99.90
12632;DHT22;6381;45.748;12.106;2023-04-24T07:42:08;14.30;99.90
12632;DHT22;6381;45.748;12.106;2023-04-24T07:44:37;14.30;99.90
12632;DHT22;6381;45.748;12.106;2023-04-24T07:47:06;14.20;99.90
12632;DHT22;6381;45.748;12.106;2023-04-24T07:49:35;14.20;99.90
12632;DHT22;6381;45.748;12.106;2023-04-24T07:52:04;14.10;99.90
12632;DHT22;6381;45.748;12.106;2023-04-24T07:54:33;14.10;99.90
12632;DHT22;6381;45.748;12.106;2023-04-24T07:57:03;13.80;99.90
12632;DHT22;6381;45.748;12.106;2023-04-24T07:59:34;14.00;99.90
12632;DHT22;6381;45.748;12.106;2023-04-24T08:02:02;13.90;99.90
12632;DHT22;6381;45.748;12.106;2023-04-24T08:04:31;13.90;99.90
12632;DHT22;6381;45.748;12.106;2023-04-24T08:07:00;14.00;99.90
12632;DHT22;6381;45.748;12.106;2023-04-24T08:09:29;14.30;99.90
12632;DHT22;6381;45.748;12.106;2023-04-24T08:11:58;14.00;99.90
12632;DHT22;6381;45.748;12.106;2023-04-24T08:14:28;14.00;99.90
12632;DHT22;6381;45.748;12.106;2023-04-24T08:16:57;13.90;99.90
12632;DHT22;6381;45.748;12.106;2023-04-24T08:19:27;14.20;99.90
12632;DHT22;6381;45.748;12.106;2023-04-24T08:21:56;14.30;99.90
12632;DHT22;6381;45.748;12.106;2023-04-24T08:24:25;14.40;99.90
12632;DHT22;6381;45.748;12.106;2023-04-24T08:26:54;14.40;99.90
12632;DHT22;6381;45.748;12.106;2023-04-24T08:29:24;14.60;99.90
12632;DHT22;6381;45.748;12.106;2023-04-24T08:31:55;14.60;99.90
12632;DHT22;6381;45.748;12.106;2023-04-24T08:34:24;14.80;99.90
12632;DHT22;6381;45.748;12.106;2023-04-24T08:36:53;14.50;99.90
12632;DHT22;6381;45.748;12.106;2023-04-24T08:39:22;14.60;99.90
12632;DHT22;6381;45.748;12.106;2023-04-24T08:41:52;14.60;99.90
12632;DHT22;6381;45.748;12.106;2023-04-24T08:44:24;14.40;99.90
12632;DHT22;6381;45.748;12.106;2023-04-24T08:46:55;14.50;99.90
12632;DHT22;6381;45.748;12.106;2023-04-24T08:49:24;14.50;99.90
12632;DHT22;6381;45.748;12.106;2023-04-24T08:51:53;14.30;99.90
12632;DHT22;6381;45.748;12.106;2023-04-24T08:54:23;14.20;99.90
12632;DHT22;6381;45.748;12.106;2023-04-24T08:56:54;14.20;99.90
12632;DHT22;6381;45.748;12.106;2023-04-24T08:59:25;14.20;99.90
12632;DHT22;6381;45.748;12.106;2023-04-24T09:01:57;14.30;99.90
12632;DHT22;6381;45.748;12.106;2023-04-24T09:04:26;14.00;99.90
12632;DHT22;6381;45.748;12.106;2023-04-24T09:06:58;14.00;99.90
12632;DHT22;6381;45.748;12.106;2023-04-24T09:09:29;13.90;99.90
12632;DHT22;6381;45.748;12.106;2023-04-24T09:11:59;14.20;99.90
12632;DHT22;6381;45.748;12.106;2023-04-24T09:14:29;14.30;99.90
12632;DHT22;6381;45.748;12.106;2023-04-24T09:17:00;14.20;99.90
12632;DHT22;6381;45.748;12.106;2023-04-24T09:19:29;14.10;99.90
12632;DHT22;6381;45.748;12.106;2023-04-24T09:21:58;14.20;99.90
12632;DHT22;6381;45.748;12.106;2023-04-24T09:24:27;14.20;99.90
12632;DHT22;6381;45.748;12.106;2023-04-24T09:26:57;14.30;99.90
12632;DHT22;6381;45.748;12.106;2023-04-24T09:29:26;14.40;99.90
12632;DHT22;6381;45.748;12.106;2023-04-24T09:31:55;14.50;99.90
12632;DHT22;6381;45.748;12.106;2023-04-24T09:34:27;14.60;99.90
12632;DHT22;6381;45.748;12.106;2023-04-24T09:36:55;14.40;99.90
12632;DHT22;6381;45.748;12.106;2023-04-24T09:39:24;14.60;99.90
12632;DHT22;6381;45.748;12.106;2023-04-24T09:41:54;14.80;99.90
12632;DHT22;6381;45.748;12.106;2023-04-24T09:44:26;14.80;99.90
12632;DHT22;6381;45.748;12.106;2023-04-24T09:46:57;15.00;99.90
12632;DHT22;6381;45.748;12.106;2023-04-24T09:49:29;15.10;99.90
12632;DHT22;6381;45.748;12.106;2023-04-24T09:52:03;15.00;99.90
12632;DHT22;6381;45.748;12.106;2023-04-24T09:54:32;14.90;99.90
12632;DHT22;6381;45.748;12.106;2023-04-24T09:57:04;14.90;99.90
12632;DHT22;6381;45.748;12.106;2023-04-24T09:59:33;15.00;99.90
12632;DHT22;6381;45.748;12.106;2023-04-24T10:02:17;15.10;99.90
12632;DHT22;6381;45.748;12.106;2023-04-24T10:04:54;15.20;99.90
12632;DHT22;6381;45.748;12.106;2023-04-24T10:07:26;15.10;99.90
12632;DHT22;6381;45.748;12.106;2023-04-24T10:09:55;15.10;99.90
12632;DHT22;6381;45.748;12.106;2023-04-24T10:12:24;15.00;99.90
12632;DHT22;6381;45.748;12.106;2023-04-24T10:14:54;15.20;99.90
12632;DHT22;6381;45.748;12.106;2023-04-24T10:17:24;15.20;99.90
12632;DHT22;6381;45.748;12.106;2023-04-24T10:19:55;15.10;99.90
12632;DHT22;6381;45.748;12.106;2023-04-24T10:22:24;15.00;99.90
12632;DHT22;6381;45.748;12.106;2023-04-24T10:24:54;15.10;99.90
12632;DHT22;6381;45.748;12.106;2023-04-24T10:27:23;15.30;99.90
12632;DHT22;6381;45.748;12.106;2023-04-24T10:29:55;15.10;99.90
12632;DHT22;6381;45.748;12.106;2023-04-24T10:32:25;14.70;99.90
12632;DHT22;6381;45.748;12.106;2023-04-24T10:34:56;14.90;99.90
12632;DHT22;6381;45.748;12.106;2023-04-24T10:37:26;14.90;99.90
12632;DHT22;6381;45.748;12.106;2023-04-24T10:39:55;15.30;99.90
12632;DHT22;6381;45.748;12.106;2023-04-24T10:42:24;15.50;99.90
12632;DHT22;6381;45.748;12.106;2023-04-24T10:44:55;15.50;99.90
12632;DHT22;6381;45.748;12.106;2023-04-24T10:47:25;15.70;99.90
12632;DHT22;6381;45.748;12.106;2023-04-24T10:50:00;15.70;99.90
12632;DHT22;6381;45.748;12.106;2023-04-24T10:52:44;16.00;99.90
12632;DHT22;6381;45.748;12.106;2023-04-24T10:55:13;16.10;99.90
12632;DHT22;6381;45.748;12.106;2023-04-24T10:58:03;16.10;99.90
12632;DHT22;6381;45.748;12.106;2023-04-24T11:00:32;16.40;99.90
12632;DHT22;6381;45.748;12.106;2023-04-24T11:03:01;16.60;99.90
12632;DHT22;6381;45.748;12.106;2023-04-24T11:05:58;16.50;99.90
12632;DHT22;6381;45.748;12.106;2023-04-24T11:08:29;17.10;99.90
12632;DHT22;6381;45.748;12.106;2023-04-24T11:11:04;16.60;99.90
12632;DHT22;6381;45.748;12.106;2023-04-24T11:14:01;16.70;99.90
12632;DHT22;6381;45.748;12.106;2023-04-24T11:16:32;16.70;99.90
12632;DHT22;6381;45.748;12.106;2023-04-24T11:19:04;16.70;99.90
12632;DHT22;6381;45.748;12.106;2023-04-24T11:21:41;16.80;99.90
12632;DHT22;6381;45.748;12.106;2023-04-24T11:24:24;16.70;99.90
12632;DHT22;6381;45.748;12.106;2023-04-24T11:26:54;16.80;99.90
12632;DHT22;6381;45.748;12.106;2023-04-24T11:29:39;16.90;99.90
12632;DHT22;6381;45.748;12.106;2023-04-24T11:32:18;16.90;99.90
12632;DHT22;6381;45.748;12.106;2023-04-24T11:34:49;17.20;99.90
12632;DHT22;6381;45.748;12.106;2023-04-24T11:37:19;17.50;99.90
12632;DHT22;6381;45.748;12.106;2023-04-24T11:39:51;17.50;99.90
12632;DHT22;6381;45.748;12.106;2023-04-24T11:42:21;17.60;99.90
12632;DHT22;6381;45.748;12.106;2023-04-24T11:44:52;17.30;99.90
12632;DHT22;6381;45.748;12.106;2023-04-24T11:47:28;17.20;99.90
12632;DHT22;6381;45.748;12.106;2023-04-24T11:49:58;17.20;99.90
12632;DHT22;6381;45.748;12.106;2023-04-24T11:52:29;17.30;99.90
12632;DHT22;6381;45.748;12.106;2023-04-24T11:54:59;17.20;99.90
12632;DHT22;6381;45.748;12.106;2023-04-24T11:57:29;17.20;99.90
12632;DHT22;6381;45.748;12.106;2023-04-24T12:00:01;17.20;99.90
12632;DHT22;6381;45.748;12.106;2023-04-24T12:02:38;17.20;99.90
12632;DHT22;6381;45.748;12.106;2023-04-24T12:05:08;17.20;99.80
12632;DHT22;6381;45.748;12.106;2023-04-24T12:07:42;17.40;99.90
12632;DHT22;6381;45.748;12.106;2023-04-24T12:10:11;17.30;99.90
12632;DHT22;6381;45.748;12.106;2023-04-24T12:12:40;17.20;99.90
12632;DHT22;6381;45.748;12.106;2023-04-24T12:15:09;17.40;99.90
12632;DHT22;6381;45.748;12.106;2023-04-24T12:17:41;17.10;99.90
12632;DHT22;6381;45.748;12.106;2023-04-24T12:20:12;17.20;99.90
12632;DHT22;6381;45.748;12.106;2023-04-24T12:22:47;17.50;99.90
12632;DHT22;6381;45.748;12.106;2023-04-24T12:25:17;17.90;99.90
12632;DHT22;6381;45.748;12.106;2023-04-24T12:27:51;17.60;99.90
12632;DHT22;6381;45.748;12.106;2023-04-24T12:30:21;17.50;99.90
12632;DHT22;6381;45.748;12.106;2023-04-24T12:32:57;17.70;99.90
12632;DHT22;6381;45.748;12.106;2023-04-24T12:35:29;17.30;99.90
12632;DHT22;6381;45.748;12.106;2023-04-24T12:38:06;17.00;99.90
12632;DHT22;6381;45.748;12.106;2023-04-24T12:40:35;17.20;99.90
12632;DHT22;6381;45.748;12.106;2023-04-24T12:43:13;17.20;99.90
12632;DHT22;6381;45.748;12.106;2023-04-24T12:45:43;17.40;99.90
12632;DHT22;6381;45.748;12.106;2023-04-24T12:48:12;17.30;99.90
12632;DHT22;6381;45.748;12.106;2023-04-24T12:50:42;17.20;99.90
12632;DHT22;6381;45.748;12.106;2023-04-24T12:53:14;17.00;99.90
12632;DHT22;6381;45.748;12.106;2023-04-24T12:55:44;16.80;99.90
12632;DHT22;6381;45.748;12.106;2023-04-24T12:58:14;16.90;99.90
12632;DHT22;6381;45.748;12.106;2023-04-24T13:00:43;16.90;99.90
12632;DHT22;6381;45.748;12.106;2023-04-24T13:03:13;16.70;99.90
12632;DHT22;6381;45.748;12.106;2023-04-24T13:05:43;16.60;99.90
12632;DHT22;6381;45.748;12.106;2023-04-24T13:08:12;16.90;99.90
12632;DHT22;6381;45.748;12.106;2023-04-24T13:10:42;17.00;99.90
12632;DHT22;6381;45.748;12.106;2023-04-24T13:13:11;17.30;99.90
12632;DHT22;6381;45.748;12.106;2023-04-24T13:15:40;17.20;99.90
12632;DHT22;6381;45.748;12.106;2023-04-24T13:18:10;16.90;99.90
12632;DHT22;6381;45.748;12.106;2023-04-24T13:20:39;17.10;99.90
12632;DHT22;6381;45.748;12.106;2023-04-24T13:23:08;17.20;99.90
12632;DHT22;6381;45.748;12.106;2023-04-24T13:25:37;17.40;99.90
12632;DHT22;6381;45.748;12.106;2023-04-24T13:28:07;17.30;99.90
12632;DHT22;6381;45.748;12.106;2023-04-24T13:30:37;17.30;99.90
12632;DHT22;6381;45.748;12.106;2023-04-24T13:33:05;17.70;99.90
12632;DHT22;6381;45.748;12.106;2023-04-24T13:35:34;17.70;99.90
12632;DHT22;6381;45.748;12.106;2023-04-24T13:38:03;17.60;99.70
12632;DHT22;6381;45.748;12.106;2023-04-24T13:40:33;17.70;99.60
12632;DHT22;6381;45.748;12.106;2023-04-24T13:43:02;17.80;99.00
12632;DHT22;6381;45.748;12.106;2023-04-24T13:45:33;18.00;99.30
12632;DHT22;6381;45.748;12.106;2023-04-24T13:48:02;18.20;98.40
12632;DHT22;6381;45.748;12.106;2023-04-24T13:50:31;18.40;97.10
12632;DHT22;6381;45.748;12.106;2023-04-24T13:52:59;18.50;97.60
12632;DHT22;6381;45.748;12.106;2023-04-24T13:55:29;18.60;96.60
12632;DHT22;6381;45.748;12.106;2023-04-24T13:57:58;18.70;96.30
12632;DHT22;6381;45.748;12.106;2023-04-24T14:00:27;18.90;96.50
12632;DHT22;6381;45.748;12.106;2023-04-24T14:02:57;19.10;96.20
12632;DHT22;6381;45.748;12.106;2023-04-24T14:05:27;18.80;95.50
12632;DHT22;6381;45.748;12.106;2023-04-24T14:07:55;18.90;95.80
12632;DHT22;6381;45.748;12.106;2023-04-24T14:10:24;19.00;95.60
12632;DHT22;6381;45.748;12.106;2023-04-24T14:12:54;18.90;95.50
12632;DHT22;6381;45.748;12.106;2023-04-24T14:15:23;19.00;95.40
12632;DHT22;6381;45.748;12.106;2023-04-24T14:17:52;18.90;94.50
12632;DHT22;6381;45.748;12.106;2023-04-24T14:20:22;18.60;94.00
12632;DHT22;6381;45.748;12.106;2023-04-24T14:22:53;18.70;93.90
12632;DHT22;6381;45.748;12.106;2023-04-24T14:25:22;18.90;93.60
12632;DHT22;6381;45.748;12.106;2023-04-24T14:27:51;18.70;94.40
12632;DHT22;6381;45.748;12.106;2023-04-24T14:30:20;19.10;94.40
12632;DHT22;6381;45.748;12.106;2023-04-24T14:32:49;19.30;94.40
12632;DHT22;6381;45.748;12.106;2023-04-24T14:35:18;19.60;92.70
12632;DHT22;6381;45.748;12.106;2023-04-24T14:37:48;20.10;90.90
12632;DHT22;6381;45.748;12.106;2023-04-24T14:40:18;20.60;85.30
12632;DHT22;6381;45.748;12.106;2023-04-24T14:42:55;20.80;81.10
12632;DHT22;6381;45.748;12.106;2023-04-24T14:45:25;21.30;74.60
12632;DHT22;6381;45.748;12.106;2023-04-24T14:47:55;21.40;75.30
12632;DHT22;6381;45.748;12.106;2023-04-24T14:50:24;21.60;75.20
12632;DHT22;6381;45.748;12.106;2023-04-24T14:52:57;21.80;74.50
12632;DHT22;6381;45.748;12.106;2023-04-24T14:55:25;22.60;71.90
12632;DHT22;6381;45.748;12.106;2023-04-24T14:57:54;23.00;68.50
12632;DHT22;6381;45.748;12.106;2023-04-24T15:00:23;22.60;65.90
12632;DHT22;6381;45.748;12.106;2023-04-24T15:02:52;23.00;64.30
12632;DHT22;6381;45.748;12.106;2023-04-24T15:05:22;22.40;64.60
12632;DHT22;6381;45.748;12.106;2023-04-24T15:07:52;22.80;65.00
12632;DHT22;6381;45.748;12.106;2023-04-24T15:10:25;23.20;63.20
12632;DHT22;6381;45.748;12.106;2023-04-24T15:12:54;22.70;61.60
12632;DHT22;6381;45.748;12.106;2023-04-24T15:15:23;23.50;59.80
12632;DHT22;6381;45.748;12.106;2023-04-24T15:17:52;23.40;65.50
12632;DHT22;6381;45.748;12.106;2023-04-24T15:20:21;23.10;61.20
12632;DHT22;6381;45.748;12.106;2023-04-24T15:22:50;23.50;59.40
12632;DHT22;6381;45.748;12.106;2023-04-24T15:25:19;23.60;61.70
12632;DHT22;6381;45.748;12.106;2023-04-24T15:27:49;24.10;58.80
12632;DHT22;6381;45.748;12.106;2023-04-24T15:30:18;23.10;59.40
12632;DHT22;6381;45.748;12.106;2023-04-24T15:32:47;23.80;59.00
12632;DHT22;6381;45.748;12.106;2023-04-24T15:35:16;25.00;58.10
12632;DHT22;6381;45.748;12.106;2023-04-24T15:37:45;24.70;51.00
12632;DHT22;6381;45.748;12.106;2023-04-24T15:40:13;24.80;51.40
12632;DHT22;6381;45.748;12.106;2023-04-24T15:42:43;24.50;51.20
12632;DHT22;6381;45.748;12.106;2023-04-24T15:45:13;25.00;49.30
12632;DHT22;6381;45.748;12.106;2023-04-24T15:47:44;24.90;49.70
12632;DHT22;6381;45.748;12.106;2023-04-24T15:50:13;25.20;48.90
12632;DHT22;6381;45.748;12.106;2023-04-24T15:52:43;24.60;48.40